Time;durP1;ratioP1;P1;durP2;ratioP2;P2;SDS_P1;SDS_P2;PMS_P1;PMS_P2;Temp;Humidity;BMP_temperature;BMP_pressure;BME280_temperature;BME280_humidity;BME280_pressure;Samples;Min_cycle;Max_cycle;Signal;HPM_P1;HPM_P2
2023/05/29 00:02:03;;;;;;;;;21.00;16.00;;;;;15.04;93.79;99557.22;6282131;20;2844056;-57
2023/05/29 00:04:32;;;;;;;;;19.50;17.00;;;;;15.09;92.95;99552.28;6278775;20;2831679;-59
2023/05/29 00:07:00;;;;;;;;;17.00;14.33;;;;;15.30;91.80;99555.06;6280391;20;3542973;-57
2023/05/29 00:09:28;;;;;;;;;18.00;14.00;;;;;15.15;91.65;99557.16;6277118;20;2498258;-58
2023/05/29 00:11:56;;;;;;;;;18.33;15.33;;;;;15.13;92.71;99555.59;6278449;20;2492010;-58
2023/05/29 00:14:25;;;;;;;;;18.67;17.33;;;;;15.21;91.10;99555.81;6310848;20;3569006;-59
2023/05/29 00:16:53;;;;;;;;;18.50;15.50;;;;;14.92;92.83;99550.09;6280495;20;2814973;-59
2023/05/29 00:19:21;;;;;;;;;17.67;14.67;;;;;14.88;92.17;99554.03;6274771;20;3559208;-58
2023/05/29 00:21:50;;;;;;;;;17.33;17.33;;;;;14.81;93.32;99545.56;6279130;20;2828514;-58
2023/05/29 00:24:18;;;;;;;;;16.33;16.33;;;;;14.67;93.97;99551.25;6310119;20;3561752;-59
2023/05/29 00:26:46;;;;;;;;;17.67;14.33;;;;;14.86;93.13;99548.75;6278952;20;3542302;-59
2023/05/29 00:29:14;;;;;;;;;18.50;16.00;;;;;14.82;93.24;99549.13;6275977;20;2485771;-57
2023/05/29 00:31:42;;;;;;;;;16.50;15.50;;;;;14.71;93.63;99548.16;6278635;20;2827374;-59
2023/05/29 00:34:10;;;;;;;;;18.00;15.00;;;;;14.57;94.93;99553.81;6277479;20;2491939;-57
2023/05/29 00:36:38;;;;;;;;;20.00;17.50;;;;;14.43;95.47;99548.63;6279676;20;2837812;-59
2023/05/29 00:39:05;;;;;;;;;16.50;15.50;;;;;14.52;96.16;99553.28;6275066;20;2494037;-57
2023/05/29 00:41:33;;;;;;;;;21.00;17.00;;;;;14.49;95.01;99553.53;6279201;20;2487777;-59
2023/05/29 00:44:00;;;;;;;;;18.50;16.00;;;;;14.53;95.32;99549.63;6279869;20;2491959;-59
2023/05/29 00:46:30;;;;;;;;;17.00;16.33;;;;;14.87;94.03;99552.31;6278460;20;3557602;-59
2023/05/29 00:49:00;;;;;;;;;16.50;16.00;;;;;14.52;96.50;99545.19;6276756;20;2827465;-57
2023/05/29 00:51:31;;;;;;;;;20.67;15.67;;;;;14.67;95.86;99546.69;6274023;20;3560302;-59
2023/05/29 00:53:59;;;;;;;;;17.50;13.00;;;;;14.23;96.48;99542.09;6279227;20;2492450;-59
2023/05/29 00:56:27;;;;;;;;;15.00;15.00;;;;;14.32;97.16;99543.22;6280923;20;3544141;-58
2023/05/29 00:58:56;;;;;;;;;15.67;15.67;;;;;14.09;97.62;99547.75;6307836;20;3549211;-58
2023/05/29 01:01:24;;;;;;;;;19.00;15.00;;;;;14.51;96.08;99548.88;6279025;20;3551447;-59
2023/05/29 01:03:57;;;;;;;;;21.00;18.00;;;;;14.55;94.97;99542.25;6274018;20;2488442;-59
2023/05/29 01:06:26;;;;;;;;;18.67;16.00;;;;;14.22;96.03;99543.94;6277918;20;3562846;-58
2023/05/29 01:08:55;;;;;;;;;15.00;15.00;;;;;14.26;96.71;99540.00;6278472;20;2807588;-57
2023/05/29 01:12:03;;;;;;;;;15.00;12.50;;;;;14.39;95.71;99536.34;6279702;20;2794031;-58
2023/05/29 01:15:04;;;;;;;;;20.00;15.00;;;;;14.57;95.17;99545.72;6277840;20;2492127;-59
2023/05/29 01:18:08;;;;;;;;;24.00;18.00;;;;;14.20;96.93;99540.50;6280025;20;2848300;-59
2023/05/29 01:20:44;;;;;;;;;14.67;13.67;;;;;14.00;97.61;99536.66;6284918;20;3518139;-59
2023/05/29 01:24:15;;;;;;;;;15.67;12.67;;;;;14.16;98.11;99541.72;6314102;20;3541922;-58
2023/05/29 01:27:01;;;;;;;;;20.67;17.00;;;;;14.14;98.50;99534.72;6282089;20;3576433;-58
2023/05/29 01:29:32;;;;;;;;;18.00;16.50;;;;;14.37;95.54;99538.31;6282447;20;2491975;-57
2023/05/29 01:32:02;;;;;;;;;17.67;15.67;;;;;14.33;94.91;99534.16;6283268;20;3558580;-59
2023/05/29 01:34:30;;;;;;;;;20.00;19.00;;;;;14.21;96.88;99533.25;6279071;20;2837794;-59
2023/05/29 01:36:58;;;;;;;;;18.67;16.33;;;;;14.24;97.48;99531.19;6282099;20;3559707;-57
2023/05/29 01:39:27;;;;;;;;;16.00;16.00;;;;;14.19;95.74;99533.41;6282213;20;2814977;-59
2023/05/29 01:41:55;;;;;;;;;17.00;17.00;;;;;14.06;97.12;99529.94;6276989;20;2496101;-58
2023/05/29 01:44:25;;;;;;;;;20.00;17.00;;;;;14.05;97.41;99528.22;6279843;20;2835705;-56
2023/05/29 01:46:53;;;;;;;;;17.50;14.50;;;;;14.03;98.28;99522.06;6283534;20;2500372;-57
2023/05/29 01:49:23;;;;;;;;;18.50;15.00;;;;;14.02;97.67;99521.22;6277956;20;2498257;-57
2023/05/29 01:51:51;;;;;;;;;13.50;13.50;;;;;13.92;96.70;99522.91;6280356;20;2498232;-59
2023/05/29 01:54:19;;;;;;;;;13.33;13.33;;;;;14.19;95.89;99511.81;6280746;20;3521190;-56
2023/05/29 01:56:48;;;;;;;;;18.67;16.33;;;;;14.26;94.91;99512.16;6317510;20;3560695;-59
2023/05/29 01:59:17;;;;;;;;;16.50;15.00;;;;;13.97;96.20;99514.47;6310686;20;2799263;-59
2023/05/29 02:01:47;;;;;;;;;17.50;16.00;;;;;13.97;96.92;99511.75;6311782;20;2828468;-59
2023/05/29 02:04:16;;;;;;;;;16.00;16.00;;;;;13.77;97.05;99514.19;6284196;20;3558561;-58
2023/05/29 02:06:44;;;;;;;;;17.50;17.00;;;;;13.83;97.91;99518.25;6286247;20;2829422;-58
2023/05/29 02:09:13;;;;;;;;;25.67;17.67;;;;;13.96;97.75;99508.22;6281598;20;2860887;-57
2023/05/29 02:11:45;;;;;;;;;15.33;15.33;;;;;13.83;97.85;99513.69;6311488;20;3544029;-58
2023/05/29 02:14:13;;;;;;;;;17.00;16.00;;;;;13.91;98.06;99504.16;6286118;20;2492438;-59
2023/05/29 02:16:43;;;;;;;;;16.00;15.67;;;;;13.60;98.43;99509.22;6281832;20;3556667;-59
2023/05/29 02:19:12;;;;;;;;;18.00;15.50;;;;;13.19;100.00;99502.41;6282492;20;2821134;-57
2023/05/29 02:21:43;;;;;;;;;21.00;18.00;;;;;13.21;100.00;99500.47;6283252;20;2832705;-59
2023/05/29 02:24:11;;;;;;;;;17.67;16.00;;;;;12.98;100.00;99501.31;6283511;20;3562889;-59
2023/05/29 02:26:40;;;;;;;;;21.67;18.00;;;;;13.22;100.00;99496.81;6282270;20;3567054;-62
2023/05/29 02:29:08;;;;;;;;;20.00;15.00;;;;;13.63;98.47;99495.50;6280286;20;2823340;-57
2023/05/29 02:31:36;;;;;;;;;21.33;14.33;;;;;13.34;97.71;99495.03;6281731;20;3575249;-57
2023/05/29 02:34:05;;;;;;;;;18.67;16.00;;;;;13.39;98.59;99498.25;6280967;20;3569088;-58
2023/05/29 02:36:35;;;;;;;;;15.67;14.67;;;;;13.46;98.55;99504.03;6282782;20;3535801;-59
2023/05/29 02:39:03;;;;;;;;;17.00;14.00;;;;;13.45;99.23;99503.16;6279952;20;2498217;-58
2023/05/29 02:41:31;;;;;;;;;15.67;14.33;;;;;13.50;98.40;99500.97;6281642;20;3544035;-59
2023/05/29 02:43:59;;;;;;;;;16.00;14.00;;;;;13.58;99.00;99497.69;6280807;20;2813846;-56
2023/05/29 02:46:26;;;;;;;;;18.50;15.00;;;;;13.42;99.32;99508.78;6279119;20;2498641;-59
2023/05/29 02:48:55;;;;;;;;;18.67;16.00;;;;;13.41;99.51;99495.44;6277955;20;3557550;-59
2023/05/29 02:51:23;;;;;;;;;15.67;15.33;;;;;13.39;98.81;99509.03;6280936;20;3550478;-59
2023/05/29 02:53:50;;;;;;;;;17.50;16.50;;;;;13.44;99.73;99500.59;6282110;20;2500308;-59
2023/05/29 02:56:23;;;;;;;;;16.00;16.00;;;;;13.26;99.47;99492.03;6283855;20;2824260;-59
2023/05/29 02:58:51;;;;;;;;;16.33;14.67;;;;;13.21;100.00;99494.22;6312542;20;3542062;-57
2023/05/29 03:01:20;;;;;;;;;16.50;16.50;;;;;13.27;99.12;99494.66;6277770;20;2828612;-59
2023/05/29 03:03:48;;;;;;;;;20.00;14.67;;;;;13.34;97.33;99495.88;6282037;20;3548202;-59
2023/05/29 03:06:17;;;;;;;;;19.00;17.33;;;;;13.45;98.94;99503.16;6280250;20;2834769;-59
2023/05/29 03:08:46;;;;;;;;;23.50;17.00;;;;;13.68;97.57;99493.31;6311492;20;2835803;-58
2023/05/29 03:11:15;;;;;;;;;17.33;16.00;;;;;13.41;98.53;99503.53;6277800;20;2829425;-59
2023/05/29 03:13:46;;;;;;;;;19.00;16.00;;;;;13.51;97.51;99500.00;6314006;20;3560755;-59
2023/05/29 03:16:13;;;;;;;;;13.00;13.00;;;;;13.52;98.37;99501.72;6286314;20;2798255;-59
2023/05/29 03:18:41;;;;;;;;;19.00;15.00;;;;;13.36;99.58;99504.72;6281246;20;2492039;-58
2023/05/29 03:21:08;;;;;;;;;21.00;17.50;;;;;13.48;99.49;99504.75;6277127;20;2483789;-58
2023/05/29 03:23:36;;;;;;;;;14.00;12.00;;;;;13.70;97.98;99504.00;6280145;20;2794038;-58
2023/05/29 03:26:05;;;;;;;;;16.00;15.00;;;;;13.36;98.57;99509.25;6282885;20;3547133;-58
2023/05/29 03:28:34;;;;;;;;;12.50;12.00;;;;;13.72;97.02;99504.72;6282245;20;2797249;-58
2023/05/29 03:31:02;;;;;;;;;19.33;16.33;;;;;13.82;96.77;99506.59;6311670;20;3564967;-59
2023/05/29 03:33:29;;;;;;;;;19.00;16.50;;;;;13.58;96.96;99508.47;6283694;20;2835724;-57
2023/05/29 03:35:58;;;;;;;;;13.00;13.00;;;;;13.90;96.22;99510.50;6281596;20;3526869;-59
2023/05/29 03:38:25;;;;;;;;;17.00;15.50;;;;;13.76;96.08;99511.59;6311074;20;2483600;-57
2023/05/29 03:40:52;;;;;;;;;20.00;17.50;;;;;13.95;96.48;99521.81;6276419;20;2491972;-59
2023/05/29 03:43:21;;;;;;;;;15.67;13.33;;;;;13.90;96.25;99513.22;6279956;20;3544092;-58
2023/05/29 03:45:49;;;;;;;;;11.33;11.00;;;;;14.07;96.00;99518.16;6279751;20;3511745;-57
2023/05/29 03:48:16;;;;;;;;;14.00;13.00;;;;;14.00;94.60;99515.06;6316355;20;2799243;-58
2023/05/29 03:50:46;;;;;;;;;12.00;12.00;;;;;14.27;93.59;99522.84;6285926;20;2787786;-58
2023/05/29 03:53:13;;;;;;;;;16.00;15.50;;;;;14.32;92.46;99522.47;6285441;20;2807571;-59
2023/05/29 03:55:41;;;;;;;;;18.00;14.00;;;;;14.29;92.50;99514.59;6283252;20;2815983;-58
2023/05/29 03:58:12;;;;;;;;;12.50;12.50;;;;;14.38;91.37;99518.44;6285525;20;2802575;-59
2023/05/29 04:00:40;;;;;;;;;15.33;13.67;;;;;14.56;91.11;99519.69;6279270;20;3509647;-58
2023/05/29 04:03:08;;;;;;;;;14.00;11.00;;;;;14.39;92.86;99525.53;6284888;20;2796249;-59
2023/05/29 04:05:36;;;;;;;;;13.67;12.33;;;;;14.68;90.37;99526.78;6281818;20;3519145;-58
2023/05/29 04:08:04;;;;;;;;;15.50;14.50;;;;;14.82;91.58;99527.50;6313961;20;2807688;-59
2023/05/29 04:10:43;;;;;;;;;17.00;17.00;;;;;14.70;92.33;99534.78;6280523;20;3449230;-59
2023/05/29 04:13:10;;;;;;;;;17.50;14.00;;;;;14.89;91.63;99534.97;6309084;20;2496203;-59
2023/05/29 04:15:38;;;;;;;;;14.50;14.50;;;;;15.12;90.10;99546.63;6282653;20;2781527;-57
2023/05/29 04:18:05;;;;;;;;;16.00;15.00;;;;;15.12;90.08;99546.63;6281182;20;2491935;-59
2023/05/29 04:20:32;;;;;;;;;20.00;17.00;;;;;15.15;89.37;99538.25;6277187;20;2483624;-58
2023/05/29 04:23:00;;;;;;;;;18.00;18.00;;;;;15.44;86.98;99540.34;6279004;20;2487955;-59
2023/05/29 04:25:27;;;;;;;;;20.00;17.00;;;;;15.48;87.84;99547.25;6281325;20;2832588;-58
2023/05/29 04:27:55;;;;;;;;;12.00;12.00;;;;;15.72;86.53;99538.06;6279075;20;3519492;-59
2023/05/29 04:30:23;;;;;;;;;17.00;12.00;;;;;15.70;84.76;99548.16;6311650;20;2793023;-58
2023/05/29 04:32:51;;;;;;;;;13.50;12.00;;;;;15.99;83.68;99546.50;6285053;20;2796142;-59
2023/05/29 04:35:19;;;;;;;;;13.00;11.50;;;;;16.56;82.25;99546.09;6284201;20;2796380;-59
2023/05/29 04:37:47;;;;;;;;;9.33;9.00;;;;;16.53;81.37;99551.78;6280160;20;2753428;-59
2023/05/29 04:40:17;;;;;;;;;17.00;13.00;;;;;16.83;79.42;99562.66;6311884;20;2809008;-57
2023/05/29 04:42:47;;;;;;;;;13.00;11.00;;;;;16.65;79.31;99556.97;6285242;20;2783587;-59
2023/05/29 04:45:16;;;;;;;;;16.00;13.00;;;;;16.61;80.32;99558.28;6285030;20;2797140;-57
2023/05/29 04:47:44;;;;;;;;;10.33;9.33;;;;;16.57;80.70;99559.53;6277319;20;2769088;-59
2023/05/29 04:50:17;;;;;;;;;14.00;11.00;;;;;16.94;79.38;99552.69;6311951;20;2798742;-58
2023/05/29 04:52:45;;;;;;;;;14.67;10.33;;;;;16.65;80.49;99561.56;6281673;20;3523216;-59
2023/05/29 04:55:12;;;;;;;;;12.00;10.00;;;;;16.93;79.40;99560.00;6320358;20;2784059;-59
2023/05/29 04:57:40;;;;;;;;;14.00;11.00;;;;;17.08;78.10;99561.28;6286234;20;3519009;-59
2023/05/29 05:00:11;;;;;;;;;11.00;9.00;;;;;17.20;78.36;99562.03;6318947;20;2759197;-59
2023/05/29 05:02:42;;;;;;;;;11.67;9.00;;;;;17.32;77.59;99562.75;6285127;20;2761754;-59
2023/05/29 05:05:10;;;;;;;;;10.50;10.00;;;;;17.50;77.63;99571.94;6319621;20;2775571;-59
2023/05/29 05:07:37;;;;;;;;;12.00;12.00;;;;;17.70;76.23;99561.09;6288776;20;2794224;-56
2023/05/29 05:10:06;;;;;;;;;13.00;10.00;;;;;19.02;70.65;99571.09;6282193;20;2792027;-60
2023/05/29 05:12:34;;;;;;;;;13.33;10.00;;;;;17.87;75.71;99568.53;6282696;20;3514838;-57
2023/05/29 05:15:01;;;;;;;;;9.00;9.00;;;;;17.75;77.20;99567.81;6318928;20;2750319;-59
2023/05/29 05:17:29;;;;;;;;;8.50;7.50;;;;;18.19;76.25;99562.78;6282832;20;2741048;-59
2023/05/29 05:19:57;;;;;;;;;10.33;10.00;;;;;18.08;76.16;99565.66;6282327;20;3512782;-59
2023/05/29 05:22:25;;;;;;;;;10.00;10.00;;;;;18.19;77.71;99575.50;6314459;20;2789899;-59
2023/05/29 05:24:54;;;;;;;;;13.00;12.00;;;;;18.26;77.58;99573.06;6313794;20;3511790;-59
2023/05/29 05:27:22;;;;;;;;;13.00;10.67;;;;;18.12;78.28;99580.66;6313239;20;3515672;-60
2023/05/29 05:29:49;;;;;;;;;14.50;12.00;;;;;18.49;78.41;99576.28;6321144;20;2779460;-60
2023/05/29 05:32:17;;;;;;;;;8.67;8.67;;;;;18.68;77.24;99578.09;6286275;20;2746126;-59
2023/05/29 05:34:46;;;;;;;;;7.40;7.00;;;;;18.74;75.17;99580.19;6342304;20;2745146;-59
2023/05/29 05:37:14;;;;;;;;;8.00;8.00;;;;;18.86;74.89;99577.19;6324074;20;2744017;-59
2023/05/29 05:39:43;;;;;;;;;8.40;8.40;;;;;18.40;77.04;99578.03;6309416;20;2750294;-58
2023/05/29 05:42:10;;;;;;;;;12.00;11.00;;;;;18.86;75.51;99584.50;6321254;20;2794332;-57
2023/05/29 05:44:37;;;;;;;;;10.00;10.00;;;;;18.68;75.00;99581.66;6290006;20;2783738;-58
2023/05/29 05:47:07;;;;;;;;;9.80;8.00;;;;;18.78;75.49;99579.78;6312368;20;2747140;-58
2023/05/29 05:49:35;;;;;;;;;8.33;8.33;;;;;18.81;74.38;99582.22;6281800;20;2746500;-58
2023/05/29 05:52:03;;;;;;;;;7.00;6.00;;;;;18.97;74.35;99578.00;6318009;20;2737810;-58
2023/05/29 05:54:32;;;;;;;;;8.80;8.80;;;;;19.31;73.54;99580.94;6310470;20;2764944;-60
2023/05/29 05:57:00;;;;;;;;;10.67;8.00;;;;;19.23;72.73;99594.47;6285264;20;2756511;-57
2023/05/29 05:59:29;;;;;;;;;9.60;9.00;;;;;19.38;72.04;99590.22;6340155;20;2761742;-57
2023/05/29 06:01:58;;;;;;;;;10.33;9.00;;;;;19.55;71.61;99590.38;6280142;20;2769124;-58
2023/05/29 06:04:26;;;;;;;;;13.67;11.00;;;;;19.08;73.75;99603.13;6314364;20;3519016;-58
2023/05/29 06:06:55;;;;;;;;;13.40;8.80;;;;;19.55;73.27;99598.56;6342167;20;2771087;-58
2023/05/29 06:09:23;;;;;;;;;8.00;7.00;;;;;19.70;72.61;99602.50;6286373;20;2734661;-58
2023/05/29 06:11:52;;;;;;;;;13.40;9.40;;;;;19.87;71.92;99604.34;6308825;20;2781618;-58
2023/05/29 06:14:24;;;;;;;;;9.60;8.40;;;;;20.15;69.18;99607.00;6308470;20;2755489;-58
2023/05/29 06:16:52;;;;;;;;;7.67;7.67;;;;;20.45;68.13;99611.13;6290426;20;2746160;-58
2023/05/29 06:19:20;;;;;;;;;12.00;9.33;;;;;20.40;66.43;99610.75;6321759;20;2781576;-59
2023/05/29 06:21:48;;;;;;;;;7.67;7.67;;;;;20.15;67.35;99615.16;6324906;20;2756570;-58
2023/05/29 06:24:16;;;;;;;;;9.33;9.00;;;;;20.44;67.16;99622.22;6309636;20;2759805;-58
2023/05/29 06:26:44;;;;;;;;;7.00;7.00;;;;;20.62;65.56;99614.88;6316329;20;2732641;-58
2023/05/29 06:29:15;;;;;;;;;7.60;7.60;;;;;20.32;66.16;99622.44;6341026;20;2737970;-58
2023/05/29 06:31:44;;;;;;;;;12.00;8.40;;;;;20.18;69.74;99620.28;6340954;20;2770056;-58
2023/05/29 06:34:12;;;;;;;;;9.00;9.00;;;;;20.62;66.96;99620.31;6284984;20;2748231;-59
2023/05/29 06:36:41;;;;;;;;;9.40;9.00;;;;;20.18;67.54;99634.78;6342089;20;2773271;-57
2023/05/29 06:39:10;;;;;;;;;12.00;9.67;;;;;20.46;68.77;99631.06;6285177;20;2777379;-58
2023/05/29 06:41:38;;;;;;;;;13.67;10.33;;;;;20.47;68.08;99632.78;6323119;20;2789891;-58
2023/05/29 06:44:06;;;;;;;;;9.00;9.00;;;;;20.62;68.19;99633.97;6314342;20;3474240;-57
2023/05/29 06:46:34;;;;;;;;;10.33;10.00;;;;;20.72;68.42;99626.53;6315334;20;2771265;-57
2023/05/29 06:49:02;;;;;;;;;11.00;8.67;;;;;20.87;67.28;99634.09;6315188;20;2770499;-58
2023/05/29 06:51:33;;;;;;;;;10.33;9.33;;;;;21.12;66.79;99630.50;6320122;20;2773327;-55
2023/05/29 06:54:01;;;;;;;;;9.00;8.33;;;;;20.99;65.78;99630.94;6321027;20;2755518;-58
2023/05/29 06:56:30;;;;;;;;;12.33;9.33;;;;;21.29;63.37;99633.28;6320722;20;2779473;-59
2023/05/29 06:58:58;;;;;;;;;11.67;8.67;;;;;21.92;61.83;99638.25;6314287;20;2774278;-57
2023/05/29 07:01:26;;;;;;;;;7.00;6.67;;;;;21.85;61.09;99639.94;6324264;20;2741918;-58
2023/05/29 07:03:55;;;;;;;;;10.67;9.67;;;;;21.96;59.31;99633.28;6315531;20;2787179;-54
2023/05/29 07:06:23;;;;;;;;;12.33;10.00;;;;;22.26;59.48;99634.56;6315291;20;2794104;-58
2023/05/29 07:08:51;;;;;;;;;10.67;9.00;;;;;22.02;58.61;99638.97;6321410;20;2770174;-58
2023/05/29 07:11:19;;;;;;;;;9.67;9.67;;;;;21.57;60.14;99636.66;6313277;20;2779447;-56
2023/05/29 07:13:47;;;;;;;;;10.00;10.00;;;;;21.24;62.48;99631.88;6322236;20;2777356;-59
2023/05/29 07:16:15;;;;;;;;;10.00;10.00;;;;;21.50;61.71;99635.59;6317958;20;2596134;-57
2023/05/29 07:18:51;;;;;;;;;9.67;8.67;;;;;20.98;62.26;99637.38;6322031;20;2757650;-57
2023/05/29 07:21:20;;;;;;;;;9.67;9.67;;;;;20.87;62.27;99639.56;6315001;20;3491977;-55
2023/05/29 07:23:48;;;;;;;;;12.00;10.00;;;;;20.89;63.87;99645.72;6311052;20;2789961;-57
2023/05/29 07:26:16;;;;;;;;;11.67;10.33;;;;;20.88;62.94;99646.72;6321124;20;2796129;-56
2023/05/29 07:28:44;;;;;;;;;11.00;8.67;;;;;20.61;62.75;99651.31;6319351;20;2770124;-58
2023/05/29 07:31:12;;;;;;;;;12.67;10.67;;;;;20.80;63.45;99650.25;6316149;20;2782730;-57
2023/05/29 07:33:41;;;;;;;;;9.67;8.33;;;;;20.89;62.24;99648.44;6321403;20;2756535;-56
2023/05/29 07:36:09;;;;;;;;;11.00;11.00;;;;;20.97;65.25;99651.22;6322144;20;2796108;-56
2023/05/29 07:38:37;;;;;;;;;10.67;7.67;;;;;21.04;62.04;99657.75;6315669;20;2760708;-58
2023/05/29 07:41:05;;;;;;;;;11.67;10.00;;;;;21.34;60.64;99666.41;6315688;20;2788841;-58
2023/05/29 07:43:33;;;;;;;;;9.67;8.00;;;;;21.39;60.09;99661.34;6313420;20;2760832;-57
2023/05/29 07:46:01;;;;;;;;;13.67;9.00;;;;;21.59;59.53;99668.25;6320163;20;2771103;-58
2023/05/29 07:48:30;;;;;;;;;7.00;7.00;;;;;21.66;60.30;99669.28;6341209;20;2738929;-59
2023/05/29 07:50:59;;;;;;;;;11.67;11.00;;;;;22.13;59.64;99671.44;6313570;20;3520530;-57
2023/05/29 07:53:26;;;;;;;;;11.00;11.00;;;;;22.44;58.73;99672.69;6318527;20;2794200;-59
2023/05/29 07:55:56;;;;;;;;;9.80;9.80;;;;;23.18;56.29;99668.81;6338901;20;2771136;-59
2023/05/29 07:58:24;;;;;;;;;12.33;10.00;;;;;22.88;58.71;99669.53;6283450;20;3520114;-58
2023/05/29 08:00:52;;;;;;;;;10.33;9.67;;;;;23.22;57.92;99672.03;6311056;20;3500327;-58
2023/05/29 08:03:21;;;;;;;;;9.33;9.33;;;;;23.22;57.51;99674.78;6315304;20;2773282;-55
2023/05/29 08:05:49;;;;;;;;;12.67;12.00;;;;;22.88;56.57;99681.38;6317783;20;2483587;-58
2023/05/29 08:08:17;;;;;;;;;11.00;11.00;;;;;23.12;58.81;99685.13;6311341;20;3518046;-58
2023/05/29 08:10:45;;;;;;;;;10.33;10.00;;;;;23.16;55.93;99679.09;6314707;20;3511744;-59
2023/05/29 08:13:13;;;;;;;;;10.00;9.00;;;;;23.06;56.76;99674.84;6312372;20;3490945;-56
2023/05/29 08:15:41;;;;;;;;;10.00;7.67;;;;;22.81;58.06;99685.81;6314710;20;2764898;-58
2023/05/29 08:18:09;;;;;;;;;13.33;10.33;;;;;23.50;58.43;99679.81;6316341;20;2789875;-55
2023/05/29 08:20:38;;;;;;;;;10.00;8.33;;;;;23.49;57.05;99673.50;6312041;20;3482726;-59
2023/05/29 08:23:06;;;;;;;;;10.67;10.67;;;;;23.17;57.34;99671.72;6317879;20;2794092;-57
2023/05/29 08:25:34;;;;;;;;;10.00;9.00;;;;;23.41;58.73;99681.75;6321059;20;2773352;-58
2023/05/29 08:28:03;;;;;;;;;6.40;6.40;;;;;22.65;59.03;99686.69;6343169;20;2742077;-56
2023/05/29 08:30:32;;;;;;;;;11.33;11.33;;;;;22.32;61.51;99691.31;6287766;20;3515919;-56
2023/05/29 08:33:00;;;;;;;;;9.67;9.67;;;;;22.31;61.13;99690.47;6318459;20;3498318;-52
2023/05/29 08:35:28;;;;;;;;;11.67;10.67;;;;;21.90;63.03;99682.16;6320408;20;3514854;-57
2023/05/29 08:37:56;;;;;;;;;10.00;10.00;;;;;21.64;62.98;99687.75;6320048;20;3512744;-57
2023/05/29 08:40:24;;;;;;;;;15.67;12.33;;;;;21.63;63.61;99691.47;6316939;20;3530537;-53
2023/05/29 08:43:21;;;;;;;;;12.33;10.67;;;;;21.98;63.89;99689.50;6287024;20;3524302;-54
2023/05/29 08:45:55;;;;;;;;;11.00;11.00;;;;;21.96;62.88;99696.19;6317007;20;3517208;-59
2023/05/29 08:48:27;;;;;;;;;17.33;14.00;;;;;21.18;69.72;99686.31;6315794;20;2489999;-58
2023/05/29 08:50:57;;;;;;;;;13.00;13.00;;;;;21.06;75.92;99683.00;6320138;20;2488193;-59
2023/05/29 08:53:26;;;;;;;;;16.67;14.67;;;;;21.10;78.82;99678.94;6315334;20;2489827;-55
2023/05/29 08:55:55;;;;;;;;;13.00;12.00;;;;;21.20;73.08;99678.81;6315763;20;3509718;-57
2023/05/29 08:58:24;;;;;;;;;14.33;12.33;;;;;21.18;74.63;99680.84;6319831;20;2803551;-53
2023/05/29 09:00:52;;;;;;;;;11.00;10.00;;;;;21.04;72.27;99674.97;6317823;20;3512875;-55
2023/05/29 09:03:21;;;;;;;;;12.00;10.33;;;;;21.22;76.10;99680.38;6315583;20;3508596;-57
2023/05/29 09:05:50;;;;;;;;;16.33;13.00;;;;;21.41;71.81;99681.16;6314531;20;3529537;-57
2023/05/29 09:08:19;;;;;;;;;15.67;13.00;;;;;21.51;69.93;99681.88;6285334;20;3533652;-57
2023/05/29 09:10:47;;;;;;;;;14.33;13.00;;;;;21.55;70.51;99679.69;6285785;20;3530561;-53
2023/05/29 09:13:15;;;;;;;;;9.00;9.00;;;;;21.70;69.14;99678.03;6296075;20;2748208;-55
2023/05/29 09:15:43;;;;;;;;;15.00;12.00;;;;;21.57;67.51;99680.38;6317242;20;3529152;-57
2023/05/29 09:18:32;;;;;;;;;9.67;9.67;;;;;21.88;67.34;99678.75;6283316;20;3495637;-54
2023/05/29 09:21:10;;;;;;;;;12.33;10.00;;;;;21.65;65.27;99673.06;6317785;20;3513375;-57
2023/05/29 09:23:38;;;;;;;;;13.00;10.67;;;;;21.93;68.50;99683.69;6317525;20;3521209;-56
2023/05/29 09:26:06;;;;;;;;;12.00;10.67;;;;;21.81;67.97;99683.16;6322765;20;2791027;-55
2023/05/29 09:28:35;;;;;;;;;12.00;12.00;;;;;21.70;65.50;99681.59;6322641;20;2788976;-58
2023/05/29 09:31:16;;;;;;;;;10.33;10.33;;;;;22.02;64.55;99685.44;6320739;20;2790001;-56
2023/05/29 09:33:49;;;;;;;;;11.00;11.00;;;;;21.94;65.80;99688.16;6316137;20;3517967;-56
2023/05/29 09:36:22;;;;;;;;;11.00;10.33;;;;;21.92;68.32;99690.19;6317614;20;3486706;-52
2023/05/29 09:38:51;;;;;;;;;14.33;12.00;;;;;21.88;68.72;99680.59;6317493;20;3524211;-54
2023/05/29 09:41:26;;;;;;;;;16.00;13.00;;;;;21.77;68.94;99680.94;6315509;20;3533654;-56
2023/05/29 09:43:55;;;;;;;;;11.50;9.50;;;;;21.75;70.07;99678.38;6316610;20;3446158;-52
2023/05/29 09:46:24;;;;;;;;;11.33;10.33;;;;;21.73;72.09;99674.09;6321795;20;2789900;-54
2023/05/29 09:48:52;;;;;;;;;11.00;11.00;;;;;21.81;73.34;99676.84;6314104;20;3516031;-57
2023/05/29 09:51:23;;;;;;;;;5.00;4.67;;;;;21.81;71.62;99685.06;6318799;20;2756477;-57
2023/05/29 09:53:56;;;;;;;;;11.00;11.00;;;;;21.61;72.22;99688.06;6316633;20;3518110;-59
2023/05/29 09:56:26;;;;;;;;;6.60;6.60;;;;;21.72;69.93;99680.56;6343441;20;2746123;-58
2023/05/29 09:58:57;;;;;;;;;10.00;10.00;;;;;21.98;72.22;99681.31;6284204;20;3516044;-59
2023/05/29 10:01:26;;;;;;;;;12.00;10.00;;;;;22.00;66.43;99681.16;6316078;20;3513828;-58
2023/05/29 10:03:54;;;;;;;;;11.33;9.67;;;;;21.56;69.97;99686.84;6315449;20;2769106;-59
2023/05/29 10:06:23;;;;;;;;;10.33;10.33;;;;;21.82;65.65;99686.75;6315939;20;3513955;-59
2023/05/29 10:08:53;;;;;;;;;11.33;10.00;;;;;21.97;66.08;99693.28;6282582;20;3513834;-58
2023/05/29 10:11:26;;;;;;;;;9.67;9.67;;;;;21.63;63.44;99688.75;6288316;20;2775459;-56
2023/05/29 10:13:57;;;;;;;;;10.67;9.67;;;;;21.82;61.87;99689.50;6317692;20;2791041;-59
2023/05/29 10:16:27;;;;;;;;;12.67;11.67;;;;;22.20;62.29;99687.22;6321705;20;2783781;-56
2023/05/29 10:18:57;;;;;;;;;13.33;13.33;;;;;22.25;57.84;99693.00;6313392;20;3529503;-59
2023/05/29 10:21:27;;;;;;;;;11.00;11.00;;;;;22.35;59.79;99685.50;6317148;20;3511953;-59
2023/05/29 10:23:58;;;;;;;;;11.60;11.60;;;;;22.60;60.31;99688.25;6340552;20;2781632;-57
2023/05/29 10:26:28;;;;;;;;;11.00;8.67;;;;;23.00;60.79;99696.41;6293566;20;2769166;-57
2023/05/29 10:30:01;;;;;;;;;10.50;9.00;;;;;23.17;63.03;99689.03;6324042;20;1942118;-57
2023/05/29 10:32:56;;;;;;;;;11.00;11.00;;;;;22.57;61.98;99693.03;6313629;20;2789042;-57
2023/05/29 10:35:46;;;;;;;;;13.67;10.67;;;;;22.58;62.08;99686.53;6313108;20;3507657;-54
2023/05/29 10:38:18;;;;;;;;;11.33;11.33;;;;;22.76;61.92;99682.75;6298504;20;2789968;-57
2023/05/29 10:40:46;;;;;;;;;10.00;9.33;;;;;23.11;62.94;99680.66;6315231;20;3502424;-56
2023/05/29 10:43:33;;;;;;;;;9.33;9.33;;;;;23.49;61.26;99678.13;6315137;20;2771366;-59
2023/05/29 10:46:02;;;;;;;;;10.67;10.67;;;;;23.10;60.07;99676.22;6321232;20;2789971;-55
2023/05/29 10:48:37;;;;;;;;;13.00;10.00;;;;;23.40;60.12;99672.66;6314790;20;3518232;-58
2023/05/29 10:51:07;;;;;;;;;11.00;9.67;;;;;23.57;59.68;99669.88;6313391;20;2781652;-57
2023/05/29 10:53:40;;;;;;;;;12.00;11.00;;;;;23.24;58.75;99670.00;6309680;20;3518278;-55
2023/05/29 10:56:15;;;;;;;;;12.00;11.33;;;;;23.43;58.59;99664.09;6283398;20;3512832;-53
2023/05/29 10:58:43;;;;;;;;;12.00;10.67;;;;;23.39;54.65;99657.25;6312979;20;2789003;-56
2023/05/29 11:01:12;;;;;;;;;16.00;11.00;;;;;23.09;56.58;99660.78;6317415;20;2810707;-57
2023/05/29 11:03:40;;;;;;;;;12.00;9.67;;;;;23.99;56.10;99658.50;6313364;20;3509765;-55
2023/05/29 11:06:21;;;;;;;;;11.67;10.33;;;;;23.96;55.16;99658.00;6313676;20;3505555;-57
2023/05/29 11:08:56;;;;;;;;;15.67;11.67;;;;;23.87;56.04;99655.31;6313340;20;2483605;-54
2023/05/29 11:11:27;;;;;;;;;12.00;11.00;;;;;24.01;54.17;99658.31;6311915;20;3515891;-56
2023/05/29 11:14:04;;;;;;;;;11.00;10.00;;;;;23.98;53.59;99651.28;6282398;20;3512895;-57
2023/05/29 11:16:32;;;;;;;;;12.33;10.00;;;;;23.96;57.00;99660.75;6314156;20;2790910;-58
2023/05/29 11:19:11;;;;;;;;;11.00;11.00;;;;;23.99;54.59;99657.66;6313973;20;3507611;-58